Rio Bonito do Iguacu, Brazil
Current Conditions -  °F | °C
As of 11:00 AM on Friday 19 Dec 2014 (Local Time) from SBCA Reporting Station
Broken Clouds Broken Clouds  
Wind Chill: 79°   Ceiling: 8000
Heat Index: 80°   Visibility: 6mi
Dew Point: 59°   Wind: 7mph
Humidity: 51%   Direction: 40°NE
Pressure: 29.91"   Gusts: NA
Location:  25.49°S, 52.53°W
Report Text: SBCA 191300Z 04006KT 9999 FEW040 BKN080 26/15 Q1013
Loading
Personal Weather Stations






























Interactive Weather Map New forecast layout! Learn more

10-Day Weather Forecast

Advertisements
Track Severe Weather on mobile